sensor_id;sensor_type;location;lat;lon;timestamp;P1;durP1;ratioP1;P2;durP2;ratioP2
17369;SDS011;8802;52.402;4.920;2023-03-01T00:00:51;11.57;;;9.43;;
17369;SDS011;8802;52.402;4.920;2023-03-01T00:03:18;9.52;;;8.52;;
17369;SDS011;8802;52.402;4.920;2023-03-01T00:05:45;9.52;;;8.52;;
17369;SDS011;8802;52.402;4.920;2023-03-01T00:08:14;9.65;;;8.75;;
17369;SDS011;8802;52.402;4.920;2023-03-01T00:10:41;10.20;;;8.13;;
17369;SDS011;8802;52.402;4.920;2023-03-01T00:13:07;9.70;;;8.52;;
17369;SDS011;8802;52.402;4.920;2023-03-01T00:15:37;10.77;;;9.20;;
17369;SDS011;8802;52.402;4.920;2023-03-01T00:18:05;9.80;;;8.80;;
17369;SDS011;8802;52.402;4.920;2023-03-01T00:20:32;11.18;;;9.98;;
17369;SDS011;8802;52.402;4.920;2023-03-01T00:22:59;9.43;;;8.48;;
17369;SDS011;8802;52.402;4.920;2023-03-01T00:25:27;10.27;;;9.32;;
17369;SDS011;8802;52.402;4.920;2023-03-01T00:27:54;10.40;;;8.73;;
17369;SDS011;8802;52.402;4.920;2023-03-01T00:30:21;12.25;;;10.25;;
17369;SDS011;8802;52.402;4.920;2023-03-01T00:32:47;10.30;;;8.77;;
17369;SDS011;8802;52.402;4.920;2023-03-01T00:35:14;10.45;;;9.45;;
17369;SDS011;8802;52.402;4.920;2023-03-01T00:37:41;8.98;;;8.07;;
17369;SDS011;8802;52.402;4.920;2023-03-01T00:40:08;9.73;;;8.82;;
17369;SDS011;8802;52.402;4.920;2023-03-01T00:42:37;9.65;;;8.73;;
17369;SDS011;8802;52.402;4.920;2023-03-01T00:45:05;10.27;;;9.35;;
17369;SDS011;8802;52.402;4.920;2023-03-01T00:47:33;11.90;;;9.52;;
17369;SDS011;8802;52.402;4.920;2023-03-01T00:50:00;12.15;;;10.07;;
17369;SDS011;8802;52.402;4.920;2023-03-01T00:52:27;10.80;;;9.25;;
17369;SDS011;8802;52.402;4.920;2023-03-01T00:54:54;10.95;;;9.77;;
17369;SDS011;8802;52.402;4.920;2023-03-01T00:57:22;10.23;;;9.32;;
17369;SDS011;8802;52.402;4.920;2023-03-01T00:59:51;11.20;;;10.02;;
17369;SDS011;8802;52.402;4.920;2023-03-01T01:02:18;10.48;;;9.48;;
17369;SDS011;8802;52.402;4.920;2023-03-01T01:04:45;9.95;;;8.98;;
17369;SDS011;8802;52.402;4.920;2023-03-01T01:07:12;11.20;;;10.10;;
17369;SDS011;8802;52.402;4.920;2023-03-01T01:09:39;10.43;;;9.43;;
17369;SDS011;8802;52.402;4.920;2023-03-01T01:12:06;10.25;;;9.25;;
17369;SDS011;8802;52.402;4.920;2023-03-01T01:14:34;10.55;;;9.30;;
17369;SDS011;8802;52.402;4.920;2023-03-01T01:17:03;11.05;;;9.95;;
17369;SDS011;8802;52.402;4.920;2023-03-01T01:19:30;11.32;;;10.23;;
17369;SDS011;8802;52.402;4.920;2023-03-01T01:21:57;10.18;;;9.25;;
17369;SDS011;8802;52.402;4.920;2023-03-01T01:24:24;10.73;;;9.73;;
17369;SDS011;8802;52.402;4.920;2023-03-01T01:26:51;10.98;;;9.90;;
17369;SDS011;8802;52.402;4.920;2023-03-01T01:29:18;10.73;;;9.73;;
17369;SDS011;8802;52.402;4.920;2023-03-01T01:31:45;10.95;;;9.95;;
17369;SDS011;8802;52.402;4.920;2023-03-01T01:34:14;11.35;;;10.23;;
17369;SDS011;8802;52.402;4.920;2023-03-01T01:36:42;10.35;;;9.43;;
17369;SDS011;8802;52.402;4.920;2023-03-01T01:39:09;11.15;;;9.32;;
17369;SDS011;8802;52.402;4.920;2023-03-01T01:41:39;10.13;;;9.07;;
17369;SDS011;8802;52.402;4.920;2023-03-01T01:44:15;9.90;;;8.90;;
17369;SDS011;8802;52.402;4.920;2023-03-01T01:46:44;10.98;;;9.98;;
17369;SDS011;8802;52.402;4.920;2023-03-01T01:52:07;10.68;;;9.68;;
17369;SDS011;8802;52.402;4.920;2023-03-01T01:54:38;12.27;;;9.13;;
17369;SDS011;8802;52.402;4.920;2023-03-01T01:57:12;10.68;;;9.68;;
17369;SDS011;8802;52.402;4.920;2023-03-01T01:59:43;11.40;;;10.20;;
17369;SDS011;8802;52.402;4.920;2023-03-01T02:02:13;9.88;;;8.93;;
17369;SDS011;8802;52.402;4.920;2023-03-01T02:04:42;11.55;;;10.15;;
17369;SDS011;8802;52.402;4.920;2023-03-01T02:07:10;10.23;;;9.23;;
17369;SDS011;8802;52.402;4.920;2023-03-01T02:09:42;10.88;;;9.65;;
17369;SDS011;8802;52.402;4.920;2023-03-01T02:12:12;11.45;;;10.35;;
17369;SDS011;8802;52.402;4.920;2023-03-01T02:14:40;10.75;;;9.68;;
17369;SDS011;8802;52.402;4.920;2023-03-01T02:17:07;11.35;;;10.20;;
17369;SDS011;8802;52.402;4.920;2023-03-01T02:19:38;11.52;;;10.40;;
17369;SDS011;8802;52.402;4.920;2023-03-01T02:22:18;10.80;;;9.80;;
17369;SDS011;8802;52.402;4.920;2023-03-01T02:24:50;10.40;;;9.30;;
17369;SDS011;8802;52.402;4.920;2023-03-01T02:27:27;10.63;;;9.52;;
17369;SDS011;8802;52.402;4.920;2023-03-01T02:30:03;10.25;;;9.27;;
17369;SDS011;8802;52.402;4.920;2023-03-01T02:32:31;11.73;;;10.52;;
17369;SDS011;8802;52.402;4.920;2023-03-01T02:34:57;9.80;;;8.90;;
17369;SDS011;8802;52.402;4.920;2023-03-01T02:37:24;11.63;;;10.55;;
17369;SDS011;8802;52.402;4.920;2023-03-01T02:39:54;10.57;;;9.60;;
17369;SDS011;8802;52.402;4.920;2023-03-01T02:42:25;11.13;;;10.02;;
17369;SDS011;8802;52.402;4.920;2023-03-01T02:44:56;11.70;;;10.43;;
17369;SDS011;8802;52.402;4.920;2023-03-01T02:47:25;10.82;;;9.73;;
17369;SDS011;8802;52.402;4.920;2023-03-01T02:49:52;12.05;;;10.95;;
17369;SDS011;8802;52.402;4.920;2023-03-01T02:55:10;13.85;;;10.88;;
17369;SDS011;8802;52.402;4.920;2023-03-01T02:57:39;11.80;;;10.60;;
17369;SDS011;8802;52.402;4.920;2023-03-01T03:00:09;10.70;;;9.65;;
17369;SDS011;8802;52.402;4.920;2023-03-01T03:02:45;11.57;;;10.48;;
17369;SDS011;8802;52.402;4.920;2023-03-01T03:05:14;11.70;;;10.50;;
17369;SDS011;8802;52.402;4.920;2023-03-01T03:07:43;11.07;;;9.93;;
17369;SDS011;8802;52.402;4.920;2023-03-01T03:10:12;14.77;;;10.80;;
17369;SDS011;8802;52.402;4.920;2023-03-01T03:12:40;12.32;;;11.05;;
17369;SDS011;8802;52.402;4.920;2023-03-01T03:15:08;11.55;;;10.35;;
17369;SDS011;8802;52.402;4.920;2023-03-01T03:17:37;11.10;;;9.77;;
17369;SDS011;8802;52.402;4.920;2023-03-01T03:20:08;12.18;;;10.98;;
17369;SDS011;8802;52.402;4.920;2023-03-01T03:22:38;11.38;;;10.27;;
17369;SDS011;8802;52.402;4.920;2023-03-01T03:25:05;11.25;;;10.15;;
17369;SDS011;8802;52.402;4.920;2023-03-01T03:27:35;11.48;;;10.38;;
17369;SDS011;8802;52.402;4.920;2023-03-01T03:30:03;11.25;;;10.15;;
17369;SDS011;8802;52.402;4.920;2023-03-01T03:32:33;11.70;;;10.45;;
17369;SDS011;8802;52.402;4.920;2023-03-01T03:35:01;11.48;;;10.38;;
17369;SDS011;8802;52.402;4.920;2023-03-01T03:37:35;13.05;;;11.82;;
17369;SDS011;8802;52.402;4.920;2023-03-01T03:40:20;11.70;;;10.52;;
17369;SDS011;8802;52.402;4.920;2023-03-01T03:42:47;10.75;;;9.73;;
17369;SDS011;8802;52.402;4.920;2023-03-01T03:45:14;10.55;;;9.52;;
17369;SDS011;8802;52.402;4.920;2023-03-01T03:47:41;11.88;;;10.77;;
17369;SDS011;8802;52.402;4.920;2023-03-01T03:50:08;12.15;;;10.85;;
17369;SDS011;8802;52.402;4.920;2023-03-01T03:52:37;13.30;;;11.40;;
17369;SDS011;8802;52.402;4.920;2023-03-01T03:55:05;12.57;;;11.02;;
17369;SDS011;8802;52.402;4.920;2023-03-01T03:57:36;12.95;;;11.63;;
17369;SDS011;8802;52.402;4.920;2023-03-01T04:00:03;12.65;;;11.48;;
17369;SDS011;8802;52.402;4.920;2023-03-01T04:02:37;12.60;;;11.40;;
17369;SDS011;8802;52.402;4.920;2023-03-01T04:05:05;11.65;;;10.45;;
17369;SDS011;8802;52.402;4.920;2023-03-01T04:07:32;11.80;;;10.55;;
17369;SDS011;8802;52.402;4.920;2023-03-01T04:10:01;12.23;;;10.93;;
17369;SDS011;8802;52.402;4.920;2023-03-01T04:12:28;12.20;;;11.00;;
17369;SDS011;8802;52.402;4.920;2023-03-01T04:14:55;12.73;;;11.48;;
17369;SDS011;8802;52.402;4.920;2023-03-01T04:17:23;13.68;;;12.38;;
17369;SDS011;8802;52.402;4.920;2023-03-01T04:19:49;13.30;;;11.90;;
17369;SDS011;8802;52.402;4.920;2023-03-01T04:22:16;12.43;;;11.18;;
17369;SDS011;8802;52.402;4.920;2023-03-01T04:24:43;12.52;;;11.23;;
17369;SDS011;8802;52.402;4.920;2023-03-01T04:27:12;12.32;;;11.13;;
17369;SDS011;8802;52.402;4.920;2023-03-01T04:29:39;12.77;;;11.52;;
17369;SDS011;8802;52.402;4.920;2023-03-01T04:32:06;12.50;;;11.30;;
17369;SDS011;8802;52.402;4.920;2023-03-01T04:34:33;13.55;;;12.23;;
17369;SDS011;8802;52.402;4.920;2023-03-01T04:37:00;11.85;;;10.65;;
17369;SDS011;8802;52.402;4.920;2023-03-01T04:39:26;12.18;;;10.98;;
17369;SDS011;8802;52.402;4.920;2023-03-01T04:41:53;12.27;;;11.07;;
17369;SDS011;8802;52.402;4.920;2023-03-01T04:44:22;13.35;;;11.88;;
17369;SDS011;8802;52.402;4.920;2023-03-01T04:46:48;12.80;;;11.52;;
17369;SDS011;8802;52.402;4.920;2023-03-01T04:49:15;12.68;;;11.38;;
17369;SDS011;8802;52.402;4.920;2023-03-01T04:51:42;12.07;;;10.88;;
17369;SDS011;8802;52.402;4.920;2023-03-01T04:54:09;13.68;;;12.27;;
17369;SDS011;8802;52.402;4.920;2023-03-01T04:56:36;13.27;;;11.88;;
17369;SDS011;8802;52.402;4.920;2023-03-01T04:59:03;11.63;;;10.45;;
17369;SDS011;8802;52.402;4.920;2023-03-01T05:01:32;11.18;;;10.15;;
17369;SDS011;8802;52.402;4.920;2023-03-01T05:04:00;12.18;;;11.00;;
17369;SDS011;8802;52.402;4.920;2023-03-01T05:06:28;12.48;;;11.38;;
17369;SDS011;8802;52.402;4.920;2023-03-01T05:08:55;13.00;;;11.60;;
17369;SDS011;8802;52.402;4.920;2023-03-01T05:11:22;13.38;;;11.98;;
17369;SDS011;8802;52.402;4.920;2023-03-01T05:13:48;13.50;;;12.13;;
17369;SDS011;8802;52.402;4.920;2023-03-01T05:16:19;12.07;;;10.93;;
17369;SDS011;8802;52.402;4.920;2023-03-01T05:18:48;11.10;;;10.02;;
17369;SDS011;8802;52.402;4.920;2023-03-01T05:21:16;12.27;;;11.15;;
17369;SDS011;8802;52.402;4.920;2023-03-01T05:23:43;13.25;;;11.85;;
17369;SDS011;8802;52.402;4.920;2023-03-01T05:26:12;12.25;;;10.98;;
17369;SDS011;8802;52.402;4.920;2023-03-01T05:28:39;11.75;;;10.65;;
17369;SDS011;8802;52.402;4.920;2023-03-01T05:31:06;11.77;;;10.60;;
17369;SDS011;8802;52.402;4.920;2023-03-01T05:33:35;13.18;;;11.90;;
17369;SDS011;8802;52.402;4.920;2023-03-01T05:36:04;14.48;;;13.07;;
17369;SDS011;8802;52.402;4.920;2023-03-01T05:38:32;13.50;;;12.20;;
17369;SDS011;8802;52.402;4.920;2023-03-01T05:40:59;12.70;;;11.35;;
17369;SDS011;8802;52.402;4.920;2023-03-01T05:43:26;17.50;;;13.88;;
17369;SDS011;8802;52.402;4.920;2023-03-01T05:45:57;14.80;;;13.13;;
17369;SDS011;8802;52.402;4.920;2023-03-01T05:48:24;12.32;;;11.02;;
17369;SDS011;8802;52.402;4.920;2023-03-01T05:50:51;15.75;;;13.18;;
17369;SDS011;8802;52.402;4.920;2023-03-01T05:53:20;14.73;;;12.93;;
17369;SDS011;8802;52.402;4.920;2023-03-01T05:55:47;19.13;;;12.93;;
17369;SDS011;8802;52.402;4.920;2023-03-01T05:58:15;21.13;;;13.50;;
17369;SDS011;8802;52.402;4.920;2023-03-01T06:00:43;27.20;;;13.18;;
17369;SDS011;8802;52.402;4.920;2023-03-01T06:03:13;22.65;;;13.77;;
17369;SDS011;8802;52.402;4.920;2023-03-01T06:05:41;46.13;;;14.45;;
17369;SDS011;8802;52.402;4.920;2023-03-01T06:08:09;35.65;;;14.23;;
17369;SDS011;8802;52.402;4.920;2023-03-01T06:10:38;102.90;;;14.40;;
17369;SDS011;8802;52.402;4.920;2023-03-01T06:13:05;60.63;;;11.73;;
17369;SDS011;8802;52.402;4.920;2023-03-01T06:15:32;88.63;;;11.73;;
17369;SDS011;8802;52.402;4.920;2023-03-01T06:17:59;33.85;;;10.10;;
17369;SDS011;8802;52.402;4.920;2023-03-01T06:20:26;31.08;;;10.07;;
17369;SDS011;8802;52.402;4.920;2023-03-01T06:22:54;52.90;;;10.23;;
17369;SDS011;8802;52.402;4.920;2023-03-01T06:25:22;50.85;;;10.43;;
17369;SDS011;8802;52.402;4.920;2023-03-01T06:27:51;99.80;;;10.98;;
17369;SDS011;8802;52.402;4.920;2023-03-01T06:30:19;35.90;;;9.32;;
17369;SDS011;8802;52.402;4.920;2023-03-01T06:32:47;42.55;;;9.20;;
17369;SDS011;8802;52.402;4.920;2023-03-01T06:35:15;52.58;;;9.70;;
17369;SDS011;8802;52.402;4.920;2023-03-01T06:37:43;40.08;;;9.82;;
17369;SDS011;8802;52.402;4.920;2023-03-01T06:40:10;87.68;;;11.30;;
17369;SDS011;8802;52.402;4.920;2023-03-01T06:42:39;63.83;;;10.85;;
17369;SDS011;8802;52.402;4.920;2023-03-01T06:45:10;42.55;;;9.82;;
17369;SDS011;8802;52.402;4.920;2023-03-01T06:47:37;56.15;;;9.70;;
17369;SDS011;8802;52.402;4.920;2023-03-01T06:50:04;25.60;;;9.13;;
17369;SDS011;8802;52.402;4.920;2023-03-01T06:52:31;65.13;;;10.05;;
17369;SDS011;8802;52.402;4.920;2023-03-01T06:54:58;75.50;;;10.43;;
17369;SDS011;8802;52.402;4.920;2023-03-01T06:57:26;127.65;;;10.80;;
17369;SDS011;8802;52.402;4.920;2023-03-01T06:59:53;84.70;;;8.98;;
17369;SDS011;8802;52.402;4.920;2023-03-01T07:02:21;114.35;;;11.02;;
17369;SDS011;8802;52.402;4.920;2023-03-01T07:04:48;93.25;;;10.02;;
17369;SDS011;8802;52.402;4.920;2023-03-01T07:07:15;36.03;;;8.45;;
17369;SDS011;8802;52.402;4.920;2023-03-01T07:09:43;47.45;;;8.93;;
17369;SDS011;8802;52.402;4.920;2023-03-01T07:12:10;86.90;;;9.93;;
17369;SDS011;8802;52.402;4.920;2023-03-01T07:14:37;65.75;;;9.25;;
17369;SDS011;8802;52.402;4.920;2023-03-01T07:17:03;50.35;;;8.65;;
17369;SDS011;8802;52.402;4.920;2023-03-01T07:19:32;27.85;;;7.22;;
17369;SDS011;8802;52.402;4.920;2023-03-01T07:21:59;32.30;;;7.55;;
17369;SDS011;8802;52.402;4.920;2023-03-01T07:24:26;57.00;;;8.32;;
17369;SDS011;8802;52.402;4.920;2023-03-01T07:26:53;63.25;;;8.60;;
17369;SDS011;8802;52.402;4.920;2023-03-01T07:29:20;19.75;;;7.22;;
17369;SDS011;8802;52.402;4.920;2023-03-01T07:31:46;23.75;;;8.18;;
17369;SDS011;8802;52.402;4.920;2023-03-01T07:34:13;37.53;;;7.43;;
17369;SDS011;8802;52.402;4.920;2023-03-01T07:36:41;22.77;;;6.60;;
17369;SDS011;8802;52.402;4.920;2023-03-01T07:39:10;18.95;;;7.50;;
17369;SDS011;8802;52.402;4.920;2023-03-01T07:41:37;21.77;;;7.13;;
17369;SDS011;8802;52.402;4.920;2023-03-01T07:44:04;24.05;;;7.47;;
17369;SDS011;8802;52.402;4.920;2023-03-01T07:46:31;23.55;;;7.90;;
17369;SDS011;8802;52.402;4.920;2023-03-01T07:48:58;29.85;;;8.13;;
17369;SDS011;8802;52.402;4.920;2023-03-01T07:51:25;27.17;;;8.23;;
17369;SDS011;8802;52.402;4.920;2023-03-01T07:53:54;14.73;;;7.50;;
17369;SDS011;8802;52.402;4.920;2023-03-01T07:56:20;24.48;;;7.78;;
17369;SDS011;8802;52.402;4.920;2023-03-01T07:58:47;33.17;;;7.15;;
17369;SDS011;8802;52.402;4.920;2023-03-01T08:01:14;46.55;;;7.30;;
17369;SDS011;8802;52.402;4.920;2023-03-01T08:03:42;20.42;;;6.63;;
17369;SDS011;8802;52.402;4.920;2023-03-01T08:06:10;115.32;;;8.43;;
17369;SDS011;8802;52.402;4.920;2023-03-01T08:08:38;41.92;;;7.75;;
17369;SDS011;8802;52.402;4.920;2023-03-01T08:11:06;118.32;;;9.93;;
17369;SDS011;8802;52.402;4.920;2023-03-01T08:13:36;79.28;;;8.55;;
17369;SDS011;8802;52.402;4.920;2023-03-01T08:16:03;29.98;;;8.10;;
17369;SDS011;8802;52.402;4.920;2023-03-01T08:18:31;74.68;;;9.68;;
17369;SDS011;8802;52.402;4.920;2023-03-01T08:21:01;149.35;;;11.30;;
17369;SDS011;8802;52.402;4.920;2023-03-01T08:23:28;93.47;;;10.40;;
17369;SDS011;8802;52.402;4.920;2023-03-01T08:26:02;49.22;;;8.90;;
17369;SDS011;8802;52.402;4.920;2023-03-01T08:28:32;23.88;;;8.45;;
17369;SDS011;8802;52.402;4.920;2023-03-01T08:30:59;33.15;;;9.50;;
17369;SDS011;8802;52.402;4.920;2023-03-01T08:33:26;23.73;;;8.65;;
17369;SDS011;8802;52.402;4.920;2023-03-01T08:36:01;58.85;;;16.42;;
17369;SDS011;8802;52.402;4.920;2023-03-01T08:38:28;50.13;;;18.55;;
17369;SDS011;8802;52.402;4.920;2023-03-01T08:40:55;41.45;;;10.95;;
17369;SDS011;8802;52.402;4.920;2023-03-01T08:43:25;23.45;;;10.95;;
17369;SDS011;8802;52.402;4.920;2023-03-01T08:45:54;26.40;;;10.20;;
17369;SDS011;8802;52.402;4.920;2023-03-01T08:48:20;21.98;;;9.90;;
17369;SDS011;8802;52.402;4.920;2023-03-01T08:50:47;46.75;;;12.55;;
17369;SDS011;8802;52.402;4.920;2023-03-01T08:53:14;87.57;;;12.75;;
17369;SDS011;8802;52.402;4.920;2023-03-01T08:55:41;91.75;;;13.30;;
17369;SDS011;8802;52.402;4.920;2023-03-01T08:58:08;97.72;;;14.55;;
17369;SDS011;8802;52.402;4.920;2023-03-01T09:00:34;48.58;;;12.10;;
17369;SDS011;8802;52.402;4.920;2023-03-01T09:03:03;100.00;;;14.02;;
17369;SDS011;8802;52.402;4.920;2023-03-01T09:05:30;24.70;;;12.90;;
17369;SDS011;8802;52.402;4.920;2023-03-01T09:07:58;97.18;;;13.73;;
17369;SDS011;8802;52.402;4.920;2023-03-01T09:10:25;60.63;;;12.18;;
17369;SDS011;8802;52.402;4.920;2023-03-01T09:12:52;63.00;;;12.13;;
17369;SDS011;8802;52.402;4.920;2023-03-01T09:15:19;30.45;;;11.10;;
17369;SDS011;8802;52.402;4.920;2023-03-01T09:17:45;49.13;;;11.80;;
17369;SDS011;8802;52.402;4.920;2023-03-01T09:20:14;42.45;;;12.95;;
17369;SDS011;8802;52.402;4.920;2023-03-01T09:22:41;15.05;;;11.90;;
17369;SDS011;8802;52.402;4.920;2023-03-01T09:25:08;66.13;;;13.27;;
17369;SDS011;8802;52.402;4.920;2023-03-01T09:27:35;31.00;;;13.27;;
17369;SDS011;8802;52.402;4.920;2023-03-01T09:30:02;34.10;;;12.68;;
17369;SDS011;8802;52.402;4.920;2023-03-01T09:32:30;41.83;;;12.43;;
17369;SDS011;8802;52.402;4.920;2023-03-01T09:34:57;49.05;;;12.93;;
17369;SDS011;8802;52.402;4.920;2023-03-01T09:37:30;41.30;;;12.52;;
17369;SDS011;8802;52.402;4.920;2023-03-01T09:39:58;30.98;;;11.50;;
17369;SDS011;8802;52.402;4.920;2023-03-01T09:42:25;13.25;;;11.95;;
17369;SDS011;8802;52.402;4.920;2023-03-01T09:44:54;23.38;;;13.23;;
17369;SDS011;8802;52.402;4.920;2023-03-01T09:47:24;40.33;;;33.33;;
17369;SDS011;8802;52.402;4.920;2023-03-01T09:49:57;26.80;;;24.15;;
17369;SDS011;8802;52.402;4.920;2023-03-01T09:52:29;34.78;;;16.40;;
17369;SDS011;8802;52.402;4.920;2023-03-01T09:55:04;16.48;;;14.25;;
17369;SDS011;8802;52.402;4.920;2023-03-01T09:57:39;17.90;;;15.45;;
17369;SDS011;8802;52.402;4.920;2023-03-01T10:00:17;15.93;;;14.32;;
17369;SDS011;8802;52.402;4.920;2023-03-01T10:02:56;17.27;;;15.57;;
17369;SDS011;8802;52.402;4.920;2023-03-01T10:05:30;15.20;;;13.70;;
17369;SDS011;8802;52.402;4.920;2023-03-01T10:10:58;19.80;;;16.77;;
17369;SDS011;8802;52.402;4.920;2023-03-01T10:13:26;18.30;;;16.58;;
17369;SDS011;8802;52.402;4.920;2023-03-01T10:16:01;19.63;;;17.85;;
17369;SDS011;8802;52.402;4.920;2023-03-01T10:18:31;19.15;;;17.27;;
17369;SDS011;8802;52.402;4.920;2023-03-01T10:21:02;20.30;;;18.25;;
17369;SDS011;8802;52.402;4.920;2023-03-01T10:23:39;27.10;;;24.58;;
17369;SDS011;8802;52.402;4.920;2023-03-01T10:26:15;18.05;;;16.35;;
17369;SDS011;8802;52.402;4.920;2023-03-01T10:29:03;18.85;;;16.95;;
17369;SDS011;8802;52.402;4.920;2023-03-01T10:31:37;18.38;;;16.65;;
17369;SDS011;8802;52.402;4.920;2023-03-01T10:34:08;18.00;;;16.23;;
17369;SDS011;8802;52.402;4.920;2023-03-01T10:36:37;16.42;;;14.82;;
17369;SDS011;8802;52.402;4.920;2023-03-01T10:39:11;18.35;;;16.58;;
17369;SDS011;8802;52.402;4.920;2023-03-01T10:41:45;18.25;;;16.55;;
17369;SDS011;8802;52.402;4.920;2023-03-01T10:44:36;17.23;;;15.57;;
17369;SDS011;8802;52.402;4.920;2023-03-01T10:47:13;17.60;;;15.95;;
17369;SDS011;8802;52.402;4.920;2023-03-01T10:49:51;19.67;;;17.77;;
17369;SDS011;8802;52.402;4.920;2023-03-01T10:52:20;22.85;;;20.55;;
17369;SDS011;8802;52.402;4.920;2023-03-01T10:54:54;19.05;;;17.27;;
17369;SDS011;8802;52.402;4.920;2023-03-01T10:57:36;19.10;;;17.23;;
17369;SDS011;8802;52.402;4.920;2023-03-01T11:00:19;17.30;;;15.63;;
17369;SDS011;8802;52.402;4.920;2023-03-01T11:02:49;14.23;;;12.55;;
17369;SDS011;8802;52.402;4.920;2023-03-01T11:05:27;13.82;;;12.63;;
17369;SDS011;8802;52.402;4.920;2023-03-01T11:07:56;13.45;;;12.10;;
17369;SDS011;8802;52.402;4.920;2023-03-01T11:10:25;12.43;;;11.23;;
17369;SDS011;8802;52.402;4.920;2023-03-01T11:12:53;12.18;;;11.02;;
17369;SDS011;8802;52.402;4.920;2023-03-01T11:15:33;10.55;;;9.55;;
17369;SDS011;8802;52.402;4.920;2023-03-01T11:17:59;11.82;;;10.70;;
17369;SDS011;8802;52.402;4.920;2023-03-01T11:20:29;11.05;;;9.95;;
17369;SDS011;8802;52.402;4.920;2023-03-01T11:22:59;11.50;;;10.40;;
17369;SDS011;8802;52.402;4.920;2023-03-01T11:25:32;11.75;;;10.57;;
17369;SDS011;8802;52.402;4.920;2023-03-01T11:28:02;12.60;;;11.40;;
17369;SDS011;8802;52.402;4.920;2023-03-01T11:30:32;13.18;;;11.88;;
17369;SDS011;8802;52.402;4.920;2023-03-01T11:33:05;11.75;;;10.65;;
17369;SDS011;8802;52.402;4.920;2023-03-01T11:35:41;13.23;;;11.85;;
17369;SDS011;8802;52.402;4.920;2023-03-01T11:38:15;13.50;;;12.18;;
17369;SDS011;8802;52.402;4.920;2023-03-01T11:40:49;13.93;;;12.63;;
17369;SDS011;8802;52.402;4.920;2023-03-01T11:43:20;14.70;;;13.20;;
17369;SDS011;8802;52.402;4.920;2023-03-01T11:46:05;15.40;;;13.93;;
17369;SDS011;8802;52.402;4.920;2023-03-01T11:49:01;15.82;;;14.23;;
17369;SDS011;8802;52.402;4.920;2023-03-01T11:51:38;15.80;;;14.38;;
17369;SDS011;8802;52.402;4.920;2023-03-01T11:54:20;16.13;;;14.52;;
17369;SDS011;8802;52.402;4.920;2023-03-01T11:56:57;14.98;;;13.57;;
17369;SDS011;8802;52.402;4.920;2023-03-01T11:59:36;15.15;;;13.65;;
17369;SDS011;8802;52.402;4.920;2023-03-01T12:02:26;14.25;;;12.68;;
17369;SDS011;8802;52.402;4.920;2023-03-01T12:05:25;13.82;;;12.55;;
17369;SDS011;8802;52.402;4.920;2023-03-01T12:08:19;13.02;;;11.80;;
17369;SDS011;8802;52.402;4.920;2023-03-01T12:10:53;13.85;;;12.52;;
17369;SDS011;8802;52.402;4.920;2023-03-01T12:13:33;12.70;;;11.60;;
17369;SDS011;8802;52.402;4.920;2023-03-01T12:16:27;13.95;;;12.65;;
17369;SDS011;8802;52.402;4.920;2023-03-01T12:19:08;14.00;;;12.60;;
17369;SDS011;8802;52.402;4.920;2023-03-01T12:21:52;14.70;;;12.68;;
17369;SDS011;8802;52.402;4.920;2023-03-01T12:24:35;14.40;;;12.95;;
17369;SDS011;8802;52.402;4.920;2023-03-01T12:27:37;13.70;;;12.40;;
17369;SDS011;8802;52.402;4.920;2023-03-01T12:30:24;11.40;;;10.25;;
17369;SDS011;8802;52.402;4.920;2023-03-01T12:33:00;12.73;;;11.52;;
17369;SDS011;8802;52.402;4.920;2023-03-01T12:35:45;11.82;;;10.65;;
17369;SDS011;8802;52.402;4.920;2023-03-01T12:38:31;11.88;;;10.68;;
17369;SDS011;8802;52.402;4.920;2023-03-01T12:41:05;11.10;;;9.93;;
17369;SDS011;8802;52.402;4.920;2023-03-01T12:43:49;10.02;;;9.02;;
17369;SDS011;8802;52.402;4.920;2023-03-01T12:46:31;10.13;;;9.20;;
17369;SDS011;8802;52.402;4.920;2023-03-01T12:49:08;10.02;;;9.02;;
17369;SDS011;8802;52.402;4.920;2023-03-01T12:51:39;10.25;;;9.23;;
17369;SDS011;8802;52.402;4.920;2023-03-01T12:54:11;10.48;;;9.48;;
17369;SDS011;8802;52.402;4.920;2023-03-01T12:56:42;10.63;;;9.52;;
17369;SDS011;8802;52.402;4.920;2023-03-01T12:59:17;12.05;;;10.85;;
17369;SDS011;8802;52.402;4.920;2023-03-01T13:01:53;12.57;;;11.27;;
17369;SDS011;8802;52.402;4.920;2023-03-01T13:04:31;12.60;;;11.32;;
17369;SDS011;8802;52.402;4.920;2023-03-01T13:07:13;16.73;;;11.88;;
17369;SDS011;8802;52.402;4.920;2023-03-01T13:09:51;12.35;;;11.13;;
17369;SDS011;8802;52.402;4.920;2023-03-01T13:15:25;12.40;;;11.18;;
17369;SDS011;8802;52.402;4.920;2023-03-01T13:17:55;14.25;;;12.60;;
17369;SDS011;8802;52.402;4.920;2023-03-01T13:20:24;17.08;;;12.73;;
17369;SDS011;8802;52.402;4.920;2023-03-01T13:23:05;13.13;;;11.52;;
17369;SDS011;8802;52.402;4.920;2023-03-01T13:25:35;14.55;;;13.13;;
17369;SDS011;8802;52.402;4.920;2023-03-01T13:34:49;12.95;;;11.30;;
17369;SDS011;8802;52.402;4.920;2023-03-01T13:37:22;12.57;;;11.20;;
17369;SDS011;8802;52.402;4.920;2023-03-01T13:39:54;11.52;;;10.32;;
17369;SDS011;8802;52.402;4.920;2023-03-01T13:45:17;14.05;;;12.25;;
17369;SDS011;8802;52.402;4.920;2023-03-01T13:47:52;13.85;;;12.45;;
17369;SDS011;8802;52.402;4.920;2023-03-01T13:50:25;15.40;;;13.55;;
17369;SDS011;8802;52.402;4.920;2023-03-01T13:52:55;14.30;;;12.80;;
17369;SDS011;8802;52.402;4.920;2023-03-01T13:55:27;13.98;;;12.45;;
17369;SDS011;8802;52.402;4.920;2023-03-01T13:58:01;14.20;;;12.77;;
17369;SDS011;8802;52.402;4.920;2023-03-01T14:00:32;14.00;;;12.60;;
17369;SDS011;8802;52.402;4.920;2023-03-01T14:03:05;14.85;;;13.20;;
17369;SDS011;8802;52.402;4.920;2023-03-01T14:05:37;15.18;;;13.50;;
17369;SDS011;8802;52.402;4.920;2023-03-01T14:08:17;15.57;;;13.98;;
17369;SDS011;8802;52.402;4.920;2023-03-01T14:10:49;14.95;;;13.05;;
17369;SDS011;8802;52.402;4.920;2023-03-01T14:13:35;14.15;;;12.15;;
17369;SDS011;8802;52.402;4.920;2023-03-01T14:16:18;13.63;;;12.18;;
17369;SDS011;8802;52.402;4.920;2023-03-01T14:18:55;13.68;;;11.82;;
17369;SDS011;8802;52.402;4.920;2023-03-01T14:21:35;15.20;;;12.75;;
17369;SDS011;8802;52.402;4.920;2023-03-01T14:24:02;13.25;;;11.85;;
17369;SDS011;8802;52.402;4.920;2023-03-01T14:26:29;13.55;;;11.77;;
17369;SDS011;8802;52.402;4.920;2023-03-01T14:28:59;13.18;;;11.77;;
17369;SDS011;8802;52.402;4.920;2023-03-01T14:34:16;12.57;;;10.77;;
17369;SDS011;8802;52.402;4.920;2023-03-01T14:36:46;11.35;;;9.98;;
17369;SDS011;8802;52.402;4.920;2023-03-01T14:39:17;11.18;;;10.07;;
17369;SDS011;8802;52.402;4.920;2023-03-01T14:41:45;9.88;;;8.90;;
17369;SDS011;8802;52.402;4.920;2023-03-01T14:44:12;11.25;;;9.25;;
17369;SDS011;8802;52.402;4.920;2023-03-01T14:46:43;9.90;;;8.90;;
17369;SDS011;8802;52.402;4.920;2023-03-01T14:49:12;10.48;;;8.93;;
17369;SDS011;8802;52.402;4.920;2023-03-01T14:51:44;9.88;;;8.88;;
17369;SDS011;8802;52.402;4.920;2023-03-01T14:54:21;8.93;;;8.05;;
17369;SDS011;8802;52.402;4.920;2023-03-01T14:56:51;8.82;;;7.82;;
17369;SDS011;8802;52.402;4.920;2023-03-01T14:59:21;8.32;;;6.65;;
17369;SDS011;8802;52.402;4.920;2023-03-01T15:01:49;7.90;;;7.10;;
17369;SDS011;8802;52.402;4.920;2023-03-01T15:04:17;8.52;;;7.32;;
17369;SDS011;8802;52.402;4.920;2023-03-01T15:06:46;7.15;;;6.47;;
17369;SDS011;8802;52.402;4.920;2023-03-01T15:09:16;7.55;;;6.35;;
17369;SDS011;8802;52.402;4.920;2023-03-01T15:11:44;9.10;;;6.88;;
17369;SDS011;8802;52.402;4.920;2023-03-01T15:14:39;6.57;;;5.95;;
17369;SDS011;8802;52.402;4.920;2023-03-01T15:17:16;6.47;;;5.88;;
17369;SDS011;8802;52.402;4.920;2023-03-01T15:19:49;8.48;;;7.15;;
17369;SDS011;8802;52.402;4.920;2023-03-01T15:22:25;7.50;;;6.80;;
17369;SDS011;8802;52.402;4.920;2023-03-01T15:24:53;7.40;;;6.60;;